sensor_id;sensor_type;location;lat;lon;timestamp;pressure;altitude;pressure_sealevel;temperature;humidity
10988;BME280;5547;42.672;23.230;2023-02-13T00:02:19;95005.63;;;-5.75;100.00
10988;BME280;5547;42.672;23.230;2023-02-13T00:05:19;95034.66;;;-5.47;100.00
10988;BME280;5547;42.672;23.230;2023-02-13T00:08:20;94956.91;;;-5.94;100.00
10988;BME280;5547;42.672;23.230;2023-02-13T00:11:20;95037.22;;;-5.58;100.00
10988;BME280;5547;42.672;23.230;2023-02-13T00:14:20;94995.00;;;-5.89;100.00
10988;BME280;5547;42.672;23.230;2023-02-13T00:17:21;94964.16;;;-5.91;100.00
10988;BME280;5547;42.672;23.230;2023-02-13T00:20:22;95011.81;;;-5.61;100.00
10988;BME280;5547;42.672;23.230;2023-02-13T00:23:23;95032.53;;;-5.45;100.00
10988;BME280;5547;42.672;23.230;2023-02-13T00:26:23;95021.94;;;-5.64;100.00
10988;BME280;5547;42.672;23.230;2023-02-13T00:29:24;95007.16;;;-5.74;100.00
10988;BME280;5547;42.672;23.230;2023-02-13T00:32:24;95019.34;;;-5.75;100.00
10988;BME280;5547;42.672;23.230;2023-02-13T00:35:24;95037.75;;;-5.51;100.00
10988;BME280;5547;42.672;23.230;2023-02-13T00:38:25;95035.66;;;-5.43;100.00
10988;BME280;5547;42.672;23.230;2023-02-13T00:41:25;94985.63;;;-5.85;100.00
10988;BME280;5547;42.672;23.230;2023-02-13T00:44:26;95046.03;;;-5.64;100.00
10988;BME280;5547;42.672;23.230;2023-02-13T00:47:26;95040.88;;;-5.59;100.00
10988;BME280;5547;42.672;23.230;2023-02-13T00:50:26;95047.88;;;-5.54;100.00
10988;BME280;5547;42.672;23.230;2023-02-13T00:53:27;95030.47;;;-5.64;100.00
10988;BME280;5547;42.672;23.230;2023-02-13T00:56:27;95047.06;;;-5.55;100.00
10988;BME280;5547;42.672;23.230;2023-02-13T00:59:28;95057.97;;;-5.58;100.00
10988;BME280;5547;42.672;23.230;2023-02-13T01:02:28;95055.38;;;-5.58;100.00
10988;BME280;5547;42.672;23.230;2023-02-13T01:05:29;95063.41;;;-5.49;100.00
10988;BME280;5547;42.672;23.230;2023-02-13T01:08:29;94998.63;;;-5.80;100.00
10988;BME280;5547;42.672;23.230;2023-02-13T01:11:30;95059.50;;;-5.16;100.00
10988;BME280;5547;42.672;23.230;2023-02-13T01:14:30;95044.19;;;-5.12;100.00
10988;BME280;5547;42.672;23.230;2023-02-13T01:17:31;95054.22;;;-4.75;100.00
10988;BME280;5547;42.672;23.230;2023-02-13T01:20:31;95036.13;;;-4.30;100.00
10988;BME280;5547;42.672;23.230;2023-02-13T01:23:34;95046.13;;;-4.03;100.00
10988;BME280;5547;42.672;23.230;2023-02-13T01:26:35;95045.22;;;-3.83;100.00
10988;BME280;5547;42.672;23.230;2023-02-13T01:29:35;95066.50;;;-3.76;100.00
10988;BME280;5547;42.672;23.230;2023-02-13T01:32:36;94987.31;;;-4.33;100.00
10988;BME280;5547;42.672;23.230;2023-02-13T01:35:39;95065.69;;;-3.71;100.00
10988;BME280;5547;42.672;23.230;2023-02-13T01:38:40;95052.09;;;-3.63;100.00
10988;BME280;5547;42.672;23.230;2023-02-13T01:41:41;95031.38;;;-3.73;100.00
10988;BME280;5547;42.672;23.230;2023-02-13T01:44:46;95074.06;;;-3.45;100.00
10988;BME280;5547;42.672;23.230;2023-02-13T01:54:04;95066.16;;;-3.30;100.00
10988;BME280;5547;42.672;23.230;2023-02-13T01:57:10;95073.91;;;-3.25;100.00
10988;BME280;5547;42.672;23.230;2023-02-13T02:00:15;95075.19;;;-3.22;100.00
10988;BME280;5547;42.672;23.230;2023-02-13T02:03:41;95077.78;;;-3.22;100.00
10988;BME280;5547;42.672;23.230;2023-02-13T02:06:47;95038.28;;;-3.59;100.00
10988;BME280;5547;42.672;23.230;2023-02-13T02:09:51;95076.72;;;-3.16;100.00
10988;BME280;5547;42.672;23.230;2023-02-13T02:12:58;95078.31;;;-3.20;100.00
10988;BME280;5547;42.672;23.230;2023-02-13T02:16:01;94925.59;;;-4.12;100.00
10988;BME280;5547;42.672;23.230;2023-02-13T02:19:04;95068.25;;;-3.32;100.00
10988;BME280;5547;42.672;23.230;2023-02-13T02:32:27;95070.59;;;-3.35;100.00
10988;BME280;5547;42.672;23.230;2023-02-13T02:45:43;95085.88;;;-3.58;100.00
10988;BME280;5547;42.672;23.230;2023-02-13T02:52:28;95060.13;;;-3.99;100.00
10988;BME280;5547;42.672;23.230;2023-02-13T02:58:45;95063.28;;;-4.07;100.00
10988;BME280;5547;42.672;23.230;2023-02-13T03:02:07;95070.53;;;-3.99;100.00
10988;BME280;5547;42.672;23.230;2023-02-13T03:05:29;95101.31;;;-3.72;100.00
10988;BME280;5547;42.672;23.230;2023-02-13T03:08:58;95097.59;;;-3.61;100.00
10988;BME280;5547;42.672;23.230;2023-02-13T03:12:22;95097.53;;;-3.50;100.00
10988;BME280;5547;42.672;23.230;2023-02-13T03:15:44;95095.38;;;-3.43;100.00
10988;BME280;5547;42.672;23.230;2023-02-13T03:19:04;95098.19;;;-3.34;100.00
10988;BME280;5547;42.672;23.230;2023-02-13T03:29:17;95096.78;;;-3.22;100.00
10988;BME280;5547;42.672;23.230;2023-02-13T03:32:58;95104.28;;;-3.15;100.00
10988;BME280;5547;42.672;23.230;2023-02-13T03:43:07;95087.38;;;-3.18;100.00
10988;BME280;5547;42.672;23.230;2023-02-13T03:46:10;95061.00;;;-3.35;100.00
10988;BME280;5547;42.672;23.230;2023-02-13T03:49:39;95094.38;;;-3.13;100.00
10988;BME280;5547;42.672;23.230;2023-02-13T03:53:04;95079.88;;;-3.24;100.00
10988;BME280;5547;42.672;23.230;2023-02-13T03:56:08;95052.50;;;-3.46;100.00
10988;BME280;5547;42.672;23.230;2023-02-13T03:59:33;95079.38;;;-3.21;100.00
10988;BME280;5547;42.672;23.230;2023-02-13T04:02:38;95089.16;;;-3.13;100.00
10988;BME280;5547;42.672;23.230;2023-02-13T04:05:43;95002.50;;;-3.72;100.00
10988;BME280;5547;42.672;23.230;2023-02-13T04:08:44;95066.47;;;-3.36;100.00
10988;BME280;5547;42.672;23.230;2023-02-13T04:12:03;95088.66;;;-3.15;100.00
10988;BME280;5547;42.672;23.230;2023-02-13T04:15:15;95083.00;;;-3.22;100.00
10988;BME280;5547;42.672;23.230;2023-02-13T04:18:24;95093.19;;;-3.26;100.00
10988;BME280;5547;42.672;23.230;2023-02-13T04:21:26;95076.91;;;-3.42;100.00
10988;BME280;5547;42.672;23.230;2023-02-13T04:24:27;95105.69;;;-3.28;100.00
10988;BME280;5547;42.672;23.230;2023-02-13T04:27:28;95068.66;;;-3.49;100.00
10988;BME280;5547;42.672;23.230;2023-02-13T04:30:28;95101.31;;;-3.38;100.00
10988;BME280;5547;42.672;23.230;2023-02-13T04:33:29;95075.47;;;-3.58;100.00
10988;BME280;5547;42.672;23.230;2023-02-13T04:36:29;95108.09;;;-3.36;100.00
10988;BME280;5547;42.672;23.230;2023-02-13T04:39:30;95062.53;;;-3.68;100.00
10988;BME280;5547;42.672;23.230;2023-02-13T04:42:30;95099.78;;;-3.39;100.00
10988;BME280;5547;42.672;23.230;2023-02-13T04:45:31;95083.91;;;-3.37;100.00
10988;BME280;5547;42.672;23.230;2023-02-13T04:48:32;95060.66;;;-3.57;100.00
10988;BME280;5547;42.672;23.230;2023-02-13T04:51:32;95088.41;;;-3.48;100.00
10988;BME280;5547;42.672;23.230;2023-02-13T04:54:33;95095.16;;;-3.47;100.00
10988;BME280;5547;42.672;23.230;2023-02-13T04:57:33;95041.25;;;-3.75;100.00
10988;BME280;5547;42.672;23.230;2023-02-13T05:00:33;95103.75;;;-3.46;100.00
10988;BME280;5547;42.672;23.230;2023-02-13T05:03:34;95061.56;;;-3.77;100.00
10988;BME280;5547;42.672;23.230;2023-02-13T05:06:34;95067.53;;;-3.77;100.00
10988;BME280;5547;42.672;23.230;2023-02-13T05:09:35;95124.03;;;-3.48;100.00
10988;BME280;5547;42.672;23.230;2023-02-13T05:12:36;95114.69;;;-3.49;100.00
10988;BME280;5547;42.672;23.230;2023-02-13T05:15:37;95109.25;;;-3.53;100.00
10988;BME280;5547;42.672;23.230;2023-02-13T05:18:37;95121.72;;;-3.50;100.00
10988;BME280;5547;42.672;23.230;2023-02-13T05:21:37;95028.28;;;-4.20;100.00
10988;BME280;5547;42.672;23.230;2023-02-13T05:24:56;95125.63;;;-3.52;100.00
10988;BME280;5547;42.672;23.230;2023-02-13T05:27:57;95124.56;;;-3.51;100.00
10988;BME280;5547;42.672;23.230;2023-02-13T05:30:57;95032.09;;;-4.07;100.00
10988;BME280;5547;42.672;23.230;2023-02-13T05:33:57;95137.53;;;-3.41;100.00
10988;BME280;5547;42.672;23.230;2023-02-13T05:36:58;95131.47;;;-3.31;100.00
10988;BME280;5547;42.672;23.230;2023-02-13T05:39:59;95133.56;;;-3.33;100.00
10988;BME280;5547;42.672;23.230;2023-02-13T05:43:00;95138.72;;;-3.28;100.00
10988;BME280;5547;42.672;23.230;2023-02-13T05:46:08;95096.28;;;-3.58;100.00
10988;BME280;5547;42.672;23.230;2023-02-13T05:49:09;95147.56;;;-3.24;100.00
10988;BME280;5547;42.672;23.230;2023-02-13T05:52:10;95121.09;;;-3.36;100.00
10988;BME280;5547;42.672;23.230;2023-02-13T05:55:10;95135.75;;;-3.11;100.00
10988;BME280;5547;42.672;23.230;2023-02-13T05:58:11;95139.09;;;-3.06;100.00
10988;BME280;5547;42.672;23.230;2023-02-13T06:01:12;95144.75;;;-2.99;100.00
10988;BME280;5547;42.672;23.230;2023-02-13T06:04:12;95149.50;;;-3.06;100.00
10988;BME280;5547;42.672;23.230;2023-02-13T06:07:13;95141.69;;;-3.06;100.00
10988;BME280;5547;42.672;23.230;2023-02-13T06:10:13;95155.56;;;-2.81;100.00
10988;BME280;5547;42.672;23.230;2023-02-13T06:13:14;95147.78;;;-2.86;100.00
10988;BME280;5547;42.672;23.230;2023-02-13T06:16:15;95156.91;;;-2.60;100.00
10988;BME280;5547;42.672;23.230;2023-02-13T06:19:15;95164.09;;;-2.46;100.00
10988;BME280;5547;42.672;23.230;2023-02-13T06:22:16;95166.03;;;-2.33;100.00
10988;BME280;5547;42.672;23.230;2023-02-13T06:25:16;95159.81;;;-2.37;100.00
10988;BME280;5547;42.672;23.230;2023-02-13T06:28:17;95164.31;;;-2.19;100.00
10988;BME280;5547;42.672;23.230;2023-02-13T06:31:17;95166.03;;;-2.09;100.00
10988;BME280;5547;42.672;23.230;2023-02-13T06:34:20;95177.47;;;-2.05;100.00
10988;BME280;5547;42.672;23.230;2023-02-13T06:37:21;95175.81;;;-1.96;100.00
10988;BME280;5547;42.672;23.230;2023-02-13T06:40:21;95157.22;;;-1.89;100.00
10988;BME280;5547;42.672;23.230;2023-02-13T06:43:21;95173.47;;;-1.73;100.00
10988;BME280;5547;42.672;23.230;2023-02-13T06:46:22;95180.69;;;-1.89;99.75
10988;BME280;5547;42.672;23.230;2023-02-13T06:49:22;95169.16;;;-2.07;100.00
10988;BME280;5547;42.672;23.230;2023-02-13T06:52:23;95174.72;;;-1.95;100.00
10988;BME280;5547;42.672;23.230;2023-02-13T06:55:23;95176.69;;;-1.81;100.00
10988;BME280;5547;42.672;23.230;2023-02-13T06:58:24;95178.91;;;-1.94;98.62
10988;BME280;5547;42.672;23.230;2023-02-13T07:01:24;95175.25;;;-1.74;98.24
10988;BME280;5547;42.672;23.230;2023-02-13T07:04:26;95174.28;;;-1.78;97.84
10988;BME280;5547;42.672;23.230;2023-02-13T07:07:26;95151.34;;;-1.81;97.84
10988;BME280;5547;42.672;23.230;2023-02-13T07:10:27;95170.38;;;-1.37;98.10
10988;BME280;5547;42.672;23.230;2023-02-13T07:13:27;95096.97;;;-1.68;94.96
10988;BME280;5547;42.672;23.230;2023-02-13T07:16:28;95170.28;;;-1.32;95.18
10988;BME280;5547;42.672;23.230;2023-02-13T07:19:28;95175.22;;;-1.31;95.13
10988;BME280;5547;42.672;23.230;2023-02-13T07:22:30;95155.22;;;-1.54;94.70
10988;BME280;5547;42.672;23.230;2023-02-13T07:25:31;95130.34;;;-1.90;95.61
10988;BME280;5547;42.672;23.230;2023-02-13T07:28:32;95187.28;;;-1.54;95.92
10988;BME280;5547;42.672;23.230;2023-02-13T07:31:33;95137.00;;;-1.59;95.11
10988;BME280;5547;42.672;23.230;2023-02-13T07:34:33;95142.00;;;-1.63;94.19
10988;BME280;5547;42.672;23.230;2023-02-13T07:37:34;95190.31;;;-1.28;93.72
10988;BME280;5547;42.672;23.230;2023-02-13T07:40:35;95061.81;;;-2.33;94.65
10988;BME280;5547;42.672;23.230;2023-02-13T07:43:35;95183.91;;;-1.54;95.46
10988;BME280;5547;42.672;23.230;2023-02-13T07:46:36;95189.06;;;-1.49;94.98
10988;BME280;5547;42.672;23.230;2023-02-13T07:49:36;95188.88;;;-1.34;93.79
10988;BME280;5547;42.672;23.230;2023-02-13T07:52:37;95177.91;;;-1.17;94.24
10988;BME280;5547;42.672;23.230;2023-02-13T07:55:37;95180.34;;;-1.07;92.06
10988;BME280;5547;42.672;23.230;2023-02-13T07:58:38;95158.06;;;-0.99;91.31
10988;BME280;5547;42.672;23.230;2023-02-13T08:01:43;95177.63;;;-0.50;90.04
10988;BME280;5547;42.672;23.230;2023-02-13T08:04:44;95168.69;;;-0.63;88.56
10988;BME280;5547;42.672;23.230;2023-02-13T08:07:45;95181.53;;;-0.33;87.49
10988;BME280;5547;42.672;23.230;2023-02-13T08:10:45;95182.97;;;-0.88;89.41
10988;BME280;5547;42.672;23.230;2023-02-13T08:14:04;95155.31;;;-0.75;89.81
10988;BME280;5547;42.672;23.230;2023-02-13T08:17:05;95134.25;;;-0.65;87.96
10988;BME280;5547;42.672;23.230;2023-02-13T08:20:07;95180.28;;;-0.36;89.60
10988;BME280;5547;42.672;23.230;2023-02-13T08:23:09;95180.50;;;-0.65;89.68
10988;BME280;5547;42.672;23.230;2023-02-13T08:26:10;95180.50;;;-0.65;89.58
10988;BME280;5547;42.672;23.230;2023-02-13T08:29:11;95145.38;;;-0.59;88.91
10988;BME280;5547;42.672;23.230;2023-02-13T08:32:12;95181.25;;;-0.32;88.39
10988;BME280;5547;42.672;23.230;2023-02-13T08:35:12;95184.59;;;-0.59;87.30
10988;BME280;5547;42.672;23.230;2023-02-13T08:38:12;95137.69;;;-0.36;86.65
10988;BME280;5547;42.672;23.230;2023-02-13T08:41:13;95182.53;;;0.26;85.18
10988;BME280;5547;42.672;23.230;2023-02-13T08:44:14;95168.75;;;0.07;85.58
10988;BME280;5547;42.672;23.230;2023-02-13T08:47:15;95167.00;;;0.16;84.67
10988;BME280;5547;42.672;23.230;2023-02-13T08:50:15;95191.66;;;0.01;85.40
10988;BME280;5547;42.672;23.230;2023-02-13T08:53:15;95187.25;;;-0.31;86.63
10988;BME280;5547;42.672;23.230;2023-02-13T08:56:16;95190.66;;;0.11;85.34
10988;BME280;5547;42.672;23.230;2023-02-13T08:59:16;95138.22;;;0.16;85.26
10988;BME280;5547;42.672;23.230;2023-02-13T09:02:17;95187.66;;;0.81;82.21
10988;BME280;5547;42.672;23.230;2023-02-13T09:05:17;95148.78;;;0.25;83.48
10988;BME280;5547;42.672;23.230;2023-02-13T09:08:17;95182.03;;;0.24;84.29
10988;BME280;5547;42.672;23.230;2023-02-13T09:11:18;95169.06;;;-0.09;84.75
10988;BME280;5547;42.672;23.230;2023-02-13T09:14:22;95188.28;;;0.65;84.29
10988;BME280;5547;42.672;23.230;2023-02-13T09:17:22;95169.53;;;1.08;79.88
10988;BME280;5547;42.672;23.230;2023-02-13T09:20:23;95182.56;;;1.21;80.73
10988;BME280;5547;42.672;23.230;2023-02-13T09:23:24;95173.75;;;1.40;78.77
10988;BME280;5547;42.672;23.230;2023-02-13T09:26:24;95179.97;;;2.24;75.73
10988;BME280;5547;42.672;23.230;2023-02-13T09:29:25;95168.59;;;1.57;77.99
10988;BME280;5547;42.672;23.230;2023-02-13T09:32:29;95175.75;;;1.43;77.77
10988;BME280;5547;42.672;23.230;2023-02-13T09:35:30;95150.91;;;1.72;77.89
10988;BME280;5547;42.672;23.230;2023-02-13T09:38:30;95156.81;;;1.46;77.41
10988;BME280;5547;42.672;23.230;2023-02-13T09:41:36;95137.16;;;1.66;76.42
10988;BME280;5547;42.672;23.230;2023-02-13T09:44:41;95163.19;;;1.85;77.02
10988;BME280;5547;42.672;23.230;2023-02-13T09:47:44;95111.59;;;0.87;78.95
10988;BME280;5547;42.672;23.230;2023-02-13T09:50:47;95163.16;;;1.00;80.49
10988;BME280;5547;42.672;23.230;2023-02-13T09:53:58;95166.44;;;0.19;82.96
10988;BME280;5547;42.672;23.230;2023-02-13T09:57:07;95154.09;;;0.47;82.61
10988;BME280;5547;42.672;23.230;2023-02-13T10:00:30;95146.53;;;0.46;83.23
10988;BME280;5547;42.672;23.230;2023-02-13T10:03:49;95084.19;;;-0.16;83.02
10988;BME280;5547;42.672;23.230;2023-02-13T10:16:54;95089.38;;;0.84;81.97
10988;BME280;5547;42.672;23.230;2023-02-13T10:20:09;95061.16;;;0.58;81.33
10988;BME280;5547;42.672;23.230;2023-02-13T10:23:21;95084.50;;;0.69;80.57
10988;BME280;5547;42.672;23.230;2023-02-13T10:26:32;95112.59;;;0.77;81.44
10988;BME280;5547;42.672;23.230;2023-02-13T10:30:04;95095.16;;;0.72;82.48
10988;BME280;5547;42.672;23.230;2023-02-13T10:33:16;95094.44;;;0.80;81.51
10988;BME280;5547;42.672;23.230;2023-02-13T10:36:21;95088.13;;;0.81;80.78
10988;BME280;5547;42.672;23.230;2023-02-13T10:39:25;95089.72;;;1.14;80.30
10988;BME280;5547;42.672;23.230;2023-02-13T10:58:19;94974.88;;;1.16;74.66
10988;BME280;5547;42.672;23.230;2023-02-13T11:01:39;95051.34;;;1.58;74.39
10988;BME280;5547;42.672;23.230;2023-02-13T11:04:42;95062.91;;;1.57;75.19
10988;BME280;5547;42.672;23.230;2023-02-13T11:07:45;95056.06;;;1.78;74.39
10988;BME280;5547;42.672;23.230;2023-02-13T11:10:50;95033.63;;;1.63;73.94
10988;BME280;5547;42.672;23.230;2023-02-13T11:14:07;95028.03;;;1.56;73.30
10988;BME280;5547;42.672;23.230;2023-02-13T11:17:16;95036.56;;;1.71;73.45
10988;BME280;5547;42.672;23.230;2023-02-13T11:20:40;95043.09;;;1.91;73.54
10988;BME280;5547;42.672;23.230;2023-02-13T11:23:45;95035.25;;;1.99;72.48
10988;BME280;5547;42.672;23.230;2023-02-13T11:26:52;95029.06;;;2.13;71.45
10988;BME280;5547;42.672;23.230;2023-02-13T11:29:58;94920.56;;;1.74;69.81
10988;BME280;5547;42.672;23.230;2023-02-13T11:33:02;95022.75;;;2.57;69.34
10988;BME280;5547;42.672;23.230;2023-02-13T11:36:14;95016.41;;;2.58;68.95
10988;BME280;5547;42.672;23.230;2023-02-13T11:39:23;94997.88;;;2.55;69.04
10988;BME280;5547;42.672;23.230;2023-02-13T11:42:33;94994.63;;;2.58;68.53
10988;BME280;5547;42.672;23.230;2023-02-13T11:45:34;94932.81;;;2.51;69.04
10988;BME280;5547;42.672;23.230;2023-02-13T11:48:35;94996.59;;;2.87;67.96
10988;BME280;5547;42.672;23.230;2023-02-13T11:51:44;94991.19;;;2.74;67.07
10988;BME280;5547;42.672;23.230;2023-02-13T11:54:55;94981.41;;;2.92;66.62
10988;BME280;5547;42.672;23.230;2023-02-13T12:01:30;94971.34;;;2.94;66.54
10988;BME280;5547;42.672;23.230;2023-02-13T12:04:30;94951.06;;;3.04;67.40
10988;BME280;5547;42.672;23.230;2023-02-13T12:07:32;94962.50;;;3.08;67.46
10988;BME280;5547;42.672;23.230;2023-02-13T12:10:35;94959.72;;;3.04;65.67
10988;BME280;5547;42.672;23.230;2023-02-13T12:13:37;94908.31;;;2.86;65.36
10988;BME280;5547;42.672;23.230;2023-02-13T12:16:41;94959.59;;;3.30;63.96
10988;BME280;5547;42.672;23.230;2023-02-13T12:19:46;94956.25;;;3.21;63.36
10988;BME280;5547;42.672;23.230;2023-02-13T12:26:25;94952.91;;;3.42;63.57
10988;BME280;5547;42.672;23.230;2023-02-13T12:30:05;94950.38;;;3.24;64.03
10988;BME280;5547;42.672;23.230;2023-02-13T12:46:39;94932.97;;;3.62;62.50
10988;BME280;5547;42.672;23.230;2023-02-13T12:56:18;94927.00;;;3.52;61.60
10988;BME280;5547;42.672;23.230;2023-02-13T13:06:09;94913.63;;;3.36;62.43
10988;BME280;5547;42.672;23.230;2023-02-13T13:19:21;94867.94;;;2.90;62.77
10988;BME280;5547;42.672;23.230;2023-02-13T13:22:32;94904.94;;;3.15;63.69
10988;BME280;5547;42.672;23.230;2023-02-13T13:25:40;94898.31;;;3.39;62.87
10988;BME280;5547;42.672;23.230;2023-02-13T13:28:48;94881.34;;;3.27;62.79
10988;BME280;5547;42.672;23.230;2023-02-13T13:31:55;94895.09;;;3.33;62.69
10988;BME280;5547;42.672;23.230;2023-02-13T13:34:58;94895.69;;;3.39;62.31
10988;BME280;5547;42.672;23.230;2023-02-13T13:38:30;94892.41;;;3.42;62.20
10988;BME280;5547;42.672;23.230;2023-02-13T13:51:29;94857.84;;;3.01;63.08
10988;BME280;5547;42.672;23.230;2023-02-13T13:54:34;94865.16;;;3.16;62.94
10988;BME280;5547;42.672;23.230;2023-02-13T14:00:41;94839.53;;;2.84;63.43
10988;BME280;5547;42.672;23.230;2023-02-13T14:03:43;94888.06;;;3.16;63.90
10988;BME280;5547;42.672;23.230;2023-02-13T14:09:44;94880.31;;;3.20;63.82
10988;BME280;5547;42.672;23.230;2023-02-13T14:12:47;94873.94;;;3.00;63.55
10988;BME280;5547;42.672;23.230;2023-02-13T14:15:50;94866.50;;;3.02;63.93
10988;BME280;5547;42.672;23.230;2023-02-13T14:18:51;94828.00;;;2.67;64.00
10988;BME280;5547;42.672;23.230;2023-02-13T14:21:52;94767.91;;;2.36;63.94
10988;BME280;5547;42.672;23.230;2023-02-13T14:24:58;94847.28;;;2.80;64.48
10988;BME280;5547;42.672;23.230;2023-02-13T14:28:01;94862.59;;;2.78;64.66
10988;BME280;5547;42.672;23.230;2023-02-13T14:31:08;94819.13;;;2.51;63.75
10988;BME280;5547;42.672;23.230;2023-02-13T14:37:20;94864.31;;;2.74;64.38
10988;BME280;5547;42.672;23.230;2023-02-13T14:40:42;94860.16;;;2.73;64.86
10988;BME280;5547;42.672;23.230;2023-02-13T14:43:50;94863.25;;;2.75;64.89
10988;BME280;5547;42.672;23.230;2023-02-13T14:46:52;94815.38;;;2.22;65.03
10988;BME280;5547;42.672;23.230;2023-02-13T14:49:55;94865.47;;;2.56;65.33
10988;BME280;5547;42.672;23.230;2023-02-13T14:52:59;94868.75;;;2.44;65.97
10988;BME280;5547;42.672;23.230;2023-02-13T14:56:08;94857.94;;;2.37;66.17
10988;BME280;5547;42.672;23.230;2023-02-13T14:59:13;94856.72;;;2.34;66.17
10988;BME280;5547;42.672;23.230;2023-02-13T15:02:30;94860.47;;;2.24;66.85
10988;BME280;5547;42.672;23.230;2023-02-13T15:05:33;94857.72;;;2.03;67.63
10988;BME280;5547;42.672;23.230;2023-02-13T15:08:40;94787.59;;;1.48;67.46
10988;BME280;5547;42.672;23.230;2023-02-13T15:11:42;94749.19;;;1.17;67.67
10988;BME280;5547;42.672;23.230;2023-02-13T15:14:43;94855.88;;;1.78;67.78
10988;BME280;5547;42.672;23.230;2023-02-13T15:17:43;94770.00;;;1.05;68.78
10988;BME280;5547;42.672;23.230;2023-02-13T15:20:45;94842.47;;;1.44;69.10
10988;BME280;5547;42.672;23.230;2023-02-13T15:23:52;94825.81;;;1.32;69.25
10988;BME280;5547;42.672;23.230;2023-02-13T15:26:59;94860.66;;;1.32;70.21
10988;BME280;5547;42.672;23.230;2023-02-13T15:30:15;94862.03;;;1.12;71.43
10988;BME280;5547;42.672;23.230;2023-02-13T15:33:20;94784.47;;;0.36;72.36
10988;BME280;5547;42.672;23.230;2023-02-13T15:36:23;94848.66;;;0.74;72.32
10988;BME280;5547;42.672;23.230;2023-02-13T15:39:29;94860.38;;;0.68;73.60
10988;BME280;5547;42.672;23.230;2023-02-13T15:42:30;94858.34;;;0.65;73.72
10988;BME280;5547;42.672;23.230;2023-02-13T15:45:31;94829.81;;;0.23;74.19
10988;BME280;5547;42.672;23.230;2023-02-13T15:48:33;94827.78;;;0.11;75.08
10988;BME280;5547;42.672;23.230;2023-02-13T15:51:35;94881.09;;;0.24;76.09
10988;BME280;5547;42.672;23.230;2023-02-13T15:54:36;94855.22;;;0.23;75.51
10988;BME280;5547;42.672;23.230;2023-02-13T15:57:46;94832.63;;;-0.05;75.91
10988;BME280;5547;42.672;23.230;2023-02-13T16:00:47;94877.06;;;0.18;76.32
10988;BME280;5547;42.672;23.230;2023-02-13T16:03:55;94869.69;;;-0.03;77.35
10988;BME280;5547;42.672;23.230;2023-02-13T16:06:57;94879.66;;;-0.13;77.87
10988;BME280;5547;42.672;23.230;2023-02-13T16:13:17;94871.69;;;-0.08;77.90
10988;BME280;5547;42.672;23.230;2023-02-13T16:16:20;94861.28;;;-0.22;77.87
10988;BME280;5547;42.672;23.230;2023-02-13T16:26:00;94883.50;;;-0.33;79.06
10988;BME280;5547;42.672;23.230;2023-02-13T16:29:08;94713.00;;;-1.71;79.82
10988;BME280;5547;42.672;23.230;2023-02-13T16:32:13;94859.13;;;-0.79;80.43
10988;BME280;5547;42.672;23.230;2023-02-13T16:35:29;94852.47;;;-0.85;80.93
10988;BME280;5547;42.672;23.230;2023-02-13T16:41:41;94898.47;;;-0.61;80.83
10988;BME280;5547;42.672;23.230;2023-02-13T16:44:41;94893.88;;;-0.78;81.53
10988;BME280;5547;42.672;23.230;2023-02-13T16:47:41;94877.44;;;-0.93;81.73
10988;BME280;5547;42.672;23.230;2023-02-13T16:50:42;94888.69;;;-0.56;80.66
10988;BME280;5547;42.672;23.230;2023-02-13T16:53:42;94889.19;;;-0.68;80.81
10988;BME280;5547;42.672;23.230;2023-02-13T16:57:31;94753.94;;;-1.85;81.81
10988;BME280;5547;42.672;23.230;2023-02-13T17:00:18;94823.41;;;-1.20;81.28
10988;BME280;5547;42.672;23.230;2023-02-13T17:03:20;94866.22;;;-0.93;81.43
10988;BME280;5547;42.672;23.230;2023-02-13T17:06:23;94886.03;;;-0.78;81.33
10988;BME280;5547;42.672;23.230;2023-02-13T17:09:24;94890.91;;;-0.63;80.63
10988;BME280;5547;42.672;23.230;2023-02-13T17:12:25;94885.28;;;-0.56;79.67
10988;BME280;5547;42.672;23.230;2023-02-13T17:15:28;94888.19;;;-0.58;79.62
10988;BME280;5547;42.672;23.230;2023-02-13T17:18:28;94829.66;;;-0.93;79.64
10988;BME280;5547;42.672;23.230;2023-02-13T17:21:29;94848.09;;;-0.76;78.88
10988;BME280;5547;42.672;23.230;2023-02-13T17:24:29;94879.19;;;-0.52;79.11
10988;BME280;5547;42.672;23.230;2023-02-13T17:27:30;94825.44;;;-1.17;79.73
10988;BME280;5547;42.672;23.230;2023-02-13T17:30:31;94888.84;;;-0.89;80.96
10988;BME280;5547;42.672;23.230;2023-02-13T17:33:32;94894.75;;;-0.83;80.26
10988;BME280;5547;42.672;23.230;2023-02-13T17:36:37;94860.81;;;-0.97;80.19
10988;BME280;5547;42.672;23.230;2023-02-13T17:39:37;94883.25;;;-0.96;80.77
10988;BME280;5547;42.672;23.230;2023-02-13T17:42:38;94886.72;;;-1.00;81.01
10988;BME280;5547;42.672;23.230;2023-02-13T17:45:39;94850.78;;;-1.31;81.10
10988;BME280;5547;42.672;23.230;2023-02-13T17:48:39;94854.44;;;-1.32;81.38
10988;BME280;5547;42.672;23.230;2023-02-13T17:51:40;94886.34;;;-1.21;81.93
10988;BME280;5547;42.672;23.230;2023-02-13T17:54:40;94880.38;;;-1.22;81.86
10988;BME280;5547;42.672;23.230;2023-02-13T17:57:41;94848.19;;;-1.45;81.68
10988;BME280;5547;42.672;23.230;2023-02-13T18:00:42;94831.44;;;-1.58;81.96
10988;BME280;5547;42.672;23.230;2023-02-13T18:03:42;94845.19;;;-1.52;82.08
10988;BME280;5547;42.672;23.230;2023-02-13T18:06:42;94775.75;;;-2.08;82.50
10988;BME280;5547;42.672;23.230;2023-02-13T18:09:43;94866.53;;;-1.50;82.83
10988;BME280;5547;42.672;23.230;2023-02-13T18:12:45;94862.06;;;-1.63;83.34
10988;BME280;5547;42.672;23.230;2023-02-13T18:15:45;94811.00;;;-2.11;83.65
10988;BME280;5547;42.672;23.230;2023-02-13T18:18:46;94855.72;;;-2.04;84.82
10988;BME280;5547;42.672;23.230;2023-02-13T18:21:46;94822.50;;;-2.45;86.20
10988;BME280;5547;42.672;23.230;2023-02-13T18:24:46;94779.22;;;-2.79;86.91
10988;BME280;5547;42.672;23.230;2023-02-13T18:27:47;94843.16;;;-2.35;86.77
10988;BME280;5547;42.672;23.230;2023-02-13T18:30:48;94858.94;;;-1.93;85.13
10988;BME280;5547;42.672;23.230;2023-02-13T18:33:48;94820.84;;;-2.08;84.13
10988;BME280;5547;42.672;23.230;2023-02-13T18:36:49;94860.16;;;-2.04;84.55
10988;BME280;5547;42.672;23.230;2023-02-13T18:39:49;94734.75;;;-2.82;85.12
10988;BME280;5547;42.672;23.230;2023-02-13T18:42:50;94867.13;;;-2.00;84.85
10988;BME280;5547;42.672;23.230;2023-02-13T18:45:51;94865.66;;;-2.06;85.16